Time,TemperatureF,DewpointF,PressureIn,WindDirection,WindDirectionDegrees,WindSpeedMPH,WindSpeedGustMPH,Humidity,HourlyPrecipIn,Conditions,Clouds,dailyrainin,SoftwareType,DateUTC
2013-07-14 00:00:00,74.5,72.0,30.12,SSW,197,0.0,0.0,92,0.00,,OVC055,0.00,VWS V13.01,2013-07-14 04:00:00,
2013-07-14 00:01:00,74.7,72.2,30.12,SSW,198,0.0,0.0,92,0.00,,OVC055,0.00,VWS V13.01,2013-07-14 04:01:00,
2013-07-14 00:02:00,74.7,72.2,30.12,SSW,197,0.0,0.0,92,0.00,,OVC004,0.00,VWS V13.01,2013-07-14 04:02:00,
2013-07-14 00:04:00,74.5,72.0,30.12,SSW,197,0.0,0.0,92,0.00,,OVC004,0.00,VWS V13.01,2013-07-14 04:04:00,
2013-07-14 00:06:00,74.5,72.0,30.12,SSW,197,0.0,0.0,92,0.00,,OVC004,0.00,VWS V13.01,2013-07-14 04:06:00,
2013-07-14 00:10:00,74.5,72.0,30.12,SSW,197,0.0,0.0,92,0.00,,OVC004,0.00,VWS V13.01,2013-07-14 04:10:00,
2013-07-14 00:15:00,74.5,72.0,30.12,SSW,198,0.0,0.0,92,0.00,,OVC004,0.00,VWS V13.01,2013-07-14 04:15:00,
2013-07-14 00:20:00,74.5,72.0,30.12,SSW,198,0.0,0.0,92,0.00,,OVC004,0.00,VWS V13.01,2013-07-14 04:20:00,
2013-07-14 00:25:00,74.3,71.8,30.12,SSW,197,0.0,0.0,92,0.00,,OVC004,0.00,VWS V13.01,2013-07-14 04:25:00,
2013-07-14 00:30:00,74.3,72.2,30.12,SSW,198,0.0,0.0,93,0.00,,OVC004,0.00,VWS V13.01,2013-07-14 04:30:00,
2013-07-14 00:35:00,74.1,72.0,30.12,SSW,197,0.0,0.0,93,0.00,,OVC004,0.00,VWS V13.01,2013-07-14 04:35:00,
2013-07-14 00:40:00,74.1,72.0,30.12,SSW,198,0.0,0.0,93,0.00,,OVC004,0.00,VWS V13.01,2013-07-14 04:40:00,
2013-07-14 00:45:00,74.1,72.0,30.12,SSW,198,0.0,0.0,93,0.00,,OVC004,0.00,VWS V13.01,2013-07-14 04:45:00,
2013-07-14 00:50:00,73.9,71.8,30.09,SSW,198,0.0,0.0,93,0.00,,OVC004,0.00,VWS V13.01,2013-07-14 04:50:00,
2013-07-14 00:55:00,73.8,71.6,30.09,SSW,197,0.0,0.0,93,0.00,,OVC004,0.00,VWS V13.01,2013-07-14 04:55:00,
2013-07-14 01:00:00,73.8,71.6,30.09,SSW,198,0.0,0.0,93,0.00,,OVC004,0.00,VWS V13.01,2013-07-14 05:00:00,
2013-07-14 01:05:00,73.6,71.4,30.09,SSW,198,0.0,0.0,93,0.00,,OVC004,0.00,VWS V13.01,2013-07-14 05:05:00,
2013-07-14 01:10:00,73.6,71.8,30.09,SSW,197,0.0,0.0,94,0.00,,OVC004,0.00,VWS V13.01,2013-07-14 05:10:00,
2013-07-14 01:15:00,73.4,71.6,30.09,SSW,197,0.0,0.0,94,0.00,,OVC004,0.00,VWS V13.01,2013-07-14 05:15:00,
2013-07-14 01:20:00,73.4,71.6,30.09,SSW,197,0.0,0.0,94,0.00,,OVC004,0.00,VWS V13.01,2013-07-14 05:20:00,
2013-07-14 01:25:00,73.4,71.6,30.09,SSW,197,0.0,0.0,94,0.00,,OVC004,0.00,VWS V13.01,2013-07-14 05:25:00,
2013-07-14 01:30:00,73.4,71.6,30.09,SSW,198,0.0,0.0,94,0.00,,OVC004,0.00,VWS V13.01,2013-07-14 05:30:00,
2013-07-14 01:35:00,73.2,71.4,30.09,SSW,197,0.0,0.0,94,0.00,,OVC004,0.00,VWS V13.01,2013-07-14 05:35:00,
2013-07-14 01:40:00,73.2,71.4,30.09,SSW,197,0.0,0.0,94,0.00,,OVC004,0.00,VWS V13.01,2013-07-14 05:40:00,
2013-07-14 01:45:00,73.2,71.7,30.09,SSW,198,0.0,0.0,95,0.00,,OVC004,0.00,VWS V13.01,2013-07-14 05:45:00,
2013-07-14 01:50:00,73.0,71.5,30.09,SSW,198,0.0,0.0,95,0.00,,OVC004,0.00,VWS V13.01,2013-07-14 05:50:00,
2013-07-14 01:56:00,73.0,71.5,30.09,SSW,198,0.0,0.0,95,0.00,,OVC004,0.00,VWS V13.01,2013-07-14 05:56:00,
2013-07-14 02:01:00,73.0,71.5,30.09,SSW,197,0.0,0.0,95,0.00,,,0.00,VWS V13.01,2013-07-14 06:01:00,
2013-07-14 02:06:00,72.9,71.3,30.09,SSW,198,0.0,0.0,95,0.00,,,0.00,VWS V13.01,2013-07-14 06:06:00,
2013-07-14 02:11:00,72.9,71.3,30.09,SSW,198,0.0,0.0,95,0.00,,,0.00,VWS V13.01,2013-07-14 06:11:00,
2013-07-14 02:16:00,72.7,71.2,30.09,SSW,198,0.0,0.0,95,0.00,,,0.00,VWS V13.01,2013-07-14 06:16:00,
2013-07-14 02:21:00,72.7,71.2,30.09,SSW,197,0.0,0.0,95,0.00,,,0.00,VWS V13.01,2013-07-14 06:21:00,
2013-07-14 02:26:00,72.7,71.2,30.09,SSW,197,0.0,0.0,95,0.00,,,0.00,VWS V13.01,2013-07-14 06:26:00,
2013-07-14 02:31:00,72.7,71.2,30.09,SSW,198,0.0,0.0,95,0.00,,,0.00,VWS V13.01,2013-07-14 06:31:00,
2013-07-14 02:36:00,72.7,71.2,30.09,SSW,198,0.0,0.0,95,0.00,,,0.00,VWS V13.01,2013-07-14 06:36:00,
2013-07-14 02:41:00,72.5,71.3,30.09,SSW,197,0.0,0.0,96,0.00,,,0.00,VWS V13.01,2013-07-14 06:41:00,
2013-07-14 02:46:00,72.3,71.1,30.09,SSW,198,0.0,0.0,96,0.00,,,0.00,VWS V13.01,2013-07-14 06:46:00,
2013-07-14 02:51:00,72.3,71.1,30.09,SSW,197,0.0,0.0,96,0.00,,,0.00,VWS V13.01,2013-07-14 06:51:00,
2013-07-14 02:56:00,72.1,70.9,30.09,SSW,198,0.0,0.0,96,0.00,,,0.00,VWS V13.01,2013-07-14 06:56:00,
2013-07-14 03:01:00,72.1,70.9,30.09,SSW,198,0.0,0.0,96,0.00,,CLR,0.00,VWS V13.01,2013-07-14 07:01:00,
2013-07-14 03:06:00,72.1,70.9,30.09,SSW,198,0.0,0.0,96,0.00,,CLR,0.00,VWS V13.01,2013-07-14 07:06:00,
2013-07-14 03:11:00,72.1,71.2,30.09,SSW,198,0.0,0.0,97,0.00,,CLR,0.00,VWS V13.01,2013-07-14 07:11:00,
2013-07-14 03:16:00,72.1,71.2,30.09,SSW,198,0.0,0.0,97,0.00,,CLR,0.00,VWS V13.01,2013-07-14 07:16:00,
2013-07-14 03:21:00,72.3,71.4,30.09,SSW,197,0.0,0.0,97,0.00,,CLR,0.00,VWS V13.01,2013-07-14 07:21:00,
2013-07-14 03:26:00,72.3,71.4,30.09,SSW,197,0.0,0.0,97,0.00,,CLR,0.00,VWS V13.01,2013-07-14 07:26:00,
2013-07-14 03:31:00,72.3,71.4,30.09,SSW,197,0.0,0.0,97,0.00,,CLR,0.00,VWS V13.01,2013-07-14 07:31:00,
2013-07-14 03:36:00,72.3,71.4,30.09,SSW,197,0.0,0.0,97,0.00,,CLR,0.00,VWS V13.01,2013-07-14 07:36:00,
2013-07-14 03:41:00,72.5,71.6,30.09,SSW,197,0.0,0.0,97,0.00,,CLR,0.00,VWS V13.01,2013-07-14 07:41:00,
2013-07-14 03:46:00,72.7,71.8,30.09,SSW,197,0.0,0.0,97,0.00,,CLR,0.00,VWS V13.01,2013-07-14 07:46:00,
2013-07-14 03:51:00,72.7,71.8,30.09,SSW,198,0.0,0.0,97,0.00,,CLR,0.00,VWS V13.01,2013-07-14 07:51:00,
2013-07-14 03:56:00,72.9,72.0,30.09,SSW,198,0.0,0.0,97,0.00,,CLR,0.00,VWS V13.01,2013-07-14 07:56:00,
2013-07-14 04:01:00,73.2,72.6,30.09,SSW,198,0.0,0.0,98,0.00,,BKN009,0.00,VWS V13.01,2013-07-14 08:01:00,
2013-07-14 04:06:00,73.2,72.6,30.09,SSW,197,0.0,0.0,98,0.00,,BKN009,0.00,VWS V13.01,2013-07-14 08:06:00,
2013-07-14 04:11:00,73.4,72.8,30.09,SSW,198,0.0,0.0,98,0.00,,BKN009,0.00,VWS V13.01,2013-07-14 08:11:00,
2013-07-14 04:16:00,73.4,72.8,30.09,SSW,198,0.0,0.0,98,0.00,,BKN009,0.00,VWS V13.01,2013-07-14 08:16:00,
2013-07-14 04:20:00,73.2,72.6,30.09,SSW,197,0.0,0.0,98,0.00,,BKN009,0.00,VWS V13.01,2013-07-14 08:20:00,
2013-07-14 04:25:00,73.2,72.6,30.09,SSW,197,0.0,0.0,98,0.00,,BKN009,0.00,VWS V13.01,2013-07-14 08:25:00,
2013-07-14 04:30:00,73.0,72.4,30.09,SSW,198,0.0,0.0,98,0.00,,BKN009,0.00,VWS V13.01,2013-07-14 08:30:00,
2013-07-14 04:35:00,73.0,72.4,30.12,SSW,197,0.0,0.0,98,0.00,,BKN009,0.00,VWS V13.01,2013-07-14 08:35:00,
2013-07-14 04:41:00,72.9,72.3,30.12,SSW,197,0.0,0.0,98,0.00,,BKN009,0.00,VWS V13.01,2013-07-14 08:41:00,
2013-07-14 04:46:00,72.9,72.3,30.12,SSW,198,0.0,0.0,98,0.00,,BKN009,0.00,VWS V13.01,2013-07-14 08:46:00,
2013-07-14 04:51:00,72.9,72.3,30.12,SSW,198,0.0,0.0,98,0.00,,BKN009,0.00,VWS V13.01,2013-07-14 08:51:00,
2013-07-14 04:56:00,72.9,72.3,30.12,SSW,198,0.0,0.0,98,0.00,,BKN009,0.00,VWS V13.01,2013-07-14 08:56:00,
2013-07-14 05:01:00,72.7,72.1,30.12,SSW,198,0.0,0.0,98,0.00,,OVC009,0.00,VWS V13.01,2013-07-14 09:01:00,
2013-07-14 05:06:00,72.7,72.1,30.12,SSW,198,0.0,0.0,98,0.00,,OVC009,0.00,VWS V13.01,2013-07-14 09:06:00,
2013-07-14 05:11:00,72.5,71.9,30.12,SSW,198,0.0,0.0,98,0.00,,OVC009,0.00,VWS V13.01,2013-07-14 09:11:00,
2013-07-14 05:16:00,72.5,71.9,30.12,SSW,198,0.0,0.0,98,0.00,,OVC009,0.00,VWS V13.01,2013-07-14 09:16:00,
2013-07-14 05:21:00,72.3,71.7,30.12,SSW,198,0.0,0.0,98,0.00,,OVC009,0.00,VWS V13.01,2013-07-14 09:21:00,
2013-07-14 05:26:00,72.3,71.7,30.12,SSW,198,0.0,0.0,98,0.00,,OVC009,0.00,VWS V13.01,2013-07-14 09:26:00,
2013-07-14 05:31:00,72.3,71.7,30.12,SSW,197,0.0,0.0,98,0.00,,OVC009,0.00,VWS V13.01,2013-07-14 09:31:00,
2013-07-14 05:36:00,72.1,71.6,30.12,SSW,197,0.0,0.0,98,0.00,,OVC009,0.00,VWS V13.01,2013-07-14 09:36:00,
2013-07-14 05:41:00,72.1,71.6,30.12,SSW,197,0.0,0.0,98,0.00,,OVC009,0.00,VWS V13.01,2013-07-14 09:41:00,
2013-07-14 05:46:00,72.1,71.6,30.12,SSW,198,0.0,0.0,98,0.00,,OVC009,0.00,VWS V13.01,2013-07-14 09:46:00,
2013-07-14 05:51:00,72.0,71.4,30.12,SSW,198,0.0,0.0,98,0.00,,OVC009,0.00,VWS V13.01,2013-07-14 09:51:00,
2013-07-14 05:56:00,72.0,71.4,30.12,SSW,198,0.0,0.0,98,0.00,,OVC009,0.00,VWS V13.01,2013-07-14 09:56:00,
2013-07-14 06:01:00,71.8,71.2,30.12,SSW,198,0.0,0.0,98,0.00,,FEW010,0.00,VWS V13.01,2013-07-14 10:01:00,
2013-07-14 06:06:00,72.0,71.4,30.12,SSW,198,0.0,0.0,98,0.00,,FEW010,0.00,VWS V13.01,2013-07-14 10:06:00,
2013-07-14 06:11:00,72.0,71.4,30.12,SSW,198,0.0,0.0,98,0.00,,FEW010,0.00,VWS V13.01,2013-07-14 10:11:00,
2013-07-14 06:16:00,72.1,71.8,30.12,SSW,198,0.0,0.0,99,0.00,,FEW010,0.00,VWS V13.01,2013-07-14 10:16:00,
2013-07-14 06:21:00,72.3,72.0,30.12,SSW,197,0.0,0.0,99,0.00,,FEW010,0.00,VWS V13.01,2013-07-14 10:21:00,
2013-07-14 06:26:00,72.7,72.1,30.12,SSW,197,0.0,0.0,98,0.00,,FEW010,0.00,VWS V13.01,2013-07-14 10:26:00,
2013-07-14 06:31:00,72.9,72.6,30.12,SSW,197,0.0,0.0,99,0.00,,FEW010,0.00,VWS V13.01,2013-07-14 10:31:00,
2013-07-14 06:36:00,73.0,72.8,30.12,SSW,197,0.0,0.0,99,0.00,,FEW010,0.00,VWS V13.01,2013-07-14 10:36:00,
2013-07-14 06:41:00,73.0,72.8,30.12,SSW,198,0.0,0.0,99,0.00,,FEW010,0.00,VWS V13.01,2013-07-14 10:41:00,
2013-07-14 06:46:00,73.2,72.9,30.12,SSW,197,0.0,0.0,99,0.00,,FEW010,0.00,VWS V13.01,2013-07-14 10:46:00,
2013-07-14 06:52:00,73.4,73.1,30.15,SSW,197,0.0,0.0,99,0.00,,FEW010,0.00,VWS V13.01,2013-07-14 10:52:00,
2013-07-14 06:57:00,73.6,73.3,30.15,SSW,198,0.0,0.0,99,0.00,,FEW010,0.00,VWS V13.01,2013-07-14 10:57:00,
2013-07-14 07:02:00,73.8,73.5,30.15,SSW,198,0.0,0.0,99,0.00,,OVC017,0.00,VWS V13.01,2013-07-14 11:02:00,
2013-07-14 07:07:00,73.9,73.7,30.15,SSW,198,0.0,0.0,99,0.00,,OVC017,0.00,VWS V13.01,2013-07-14 11:07:00,
2013-07-14 07:12:00,73.9,73.7,30.15,SSW,198,0.0,0.0,99,0.00,,OVC017,0.00,VWS V13.01,2013-07-14 11:12:00,
2013-07-14 07:17:00,74.1,73.8,30.15,SSW,198,0.0,0.0,99,0.00,,OVC017,0.00,VWS V13.01,2013-07-14 11:17:00,
2013-07-14 07:22:00,74.5,74.2,30.15,SSW,197,0.0,0.0,99,0.00,,OVC017,0.00,VWS V13.01,2013-07-14 11:22:00,
2013-07-14 07:27:00,74.7,74.4,30.15,SSW,198,0.0,0.0,99,0.00,,OVC017,0.00,VWS V13.01,2013-07-14 11:27:00,
2013-07-14 07:32:00,74.8,74.5,30.15,SSW,197,0.0,0.0,99,0.00,,OVC017,0.00,VWS V13.01,2013-07-14 11:32:00,
2013-07-14 07:37:00,74.8,74.5,30.15,SSW,197,0.0,0.0,99,0.00,,OVC017,0.00,VWS V13.01,2013-07-14 11:37:00,
2013-07-14 07:42:00,75.0,74.7,30.15,SSW,197,0.0,0.0,99,0.00,,OVC017,0.00,VWS V13.01,2013-07-14 11:42:00,
2013-07-14 07:47:00,75.4,75.1,30.15,SSW,197,0.0,0.0,99,0.00,,OVC017,0.00,VWS V13.01,2013-07-14 11:47:00,
2013-07-14 07:52:00,75.7,75.4,30.15,SSW,197,0.0,0.0,99,0.00,,OVC017,0.00,VWS V13.01,2013-07-14 11:52:00,
2013-07-14 07:57:00,75.9,75.6,30.15,SSW,197,0.0,0.0,99,0.00,,OVC017,0.00,VWS V13.01,2013-07-14 11:57:00,
2013-07-14 08:02:00,75.9,75.6,30.15,SSW,198,0.0,0.0,99,0.00,,OVC024,0.00,VWS V13.01,2013-07-14 12:02:00,
2013-07-14 08:07:00,76.3,76.0,30.15,SSW,198,0.0,0.0,99,0.00,,OVC024,0.00,VWS V13.01,2013-07-14 12:07:00,
2013-07-14 08:12:00,76.6,76.3,30.15,SSW,197,0.0,0.0,99,0.00,,OVC024,0.00,VWS V13.01,2013-07-14 12:12:00,
2013-07-14 08:17:00,76.8,76.5,30.15,SSW,198,0.0,0.0,99,0.00,,OVC024,0.00,VWS V13.01,2013-07-14 12:17:00,
2013-07-14 08:22:00,77.4,77.1,30.15,SSW,197,0.0,0.0,99,0.00,,OVC024,0.00,VWS V13.01,2013-07-14 12:22:00,
2013-07-14 08:27:00,77.7,77.4,30.15,SSW,197,0.0,0.0,99,0.00,,OVC024,0.00,VWS V13.01,2013-07-14 12:27:00,
2013-07-14 08:32:00,78.4,77.8,30.15,SSW,198,0.0,0.0,98,0.00,,OVC024,0.00,VWS V13.01,2013-07-14 12:32:00,
2013-07-14 08:37:00,78.4,77.8,30.15,SSW,197,0.0,0.0,98,0.00,,OVC024,0.00,VWS V13.01,2013-07-14 12:37:00,
2013-07-14 08:42:00,78.6,77.7,30.15,SSW,197,0.0,0.0,97,0.00,,OVC024,0.00,VWS V13.01,2013-07-14 12:42:00,
2013-07-14 08:47:00,79.0,77.4,30.15,SSW,197,0.0,0.0,95,0.00,,OVC024,0.00,VWS V13.01,2013-07-14 12:47:00,
2013-07-14 08:52:00,79.2,77.3,30.15,SSW,198,0.0,5.4,94,0.00,,OVC024,0.00,VWS V13.01,2013-07-14 12:52:00,
2013-07-14 08:57:00,79.3,76.2,30.15,SSW,197,0.0,0.0,90,0.00,,OVC024,0.00,VWS V13.01,2013-07-14 12:57:00,
2013-07-14 09:02:00,79.7,75.2,30.15,SSW,197,0.0,0.0,86,0.00,,OVC025,0.00,VWS V13.01,2013-07-14 13:02:00,
2013-07-14 09:07:00,79.9,72.4,30.15,SSW,197,0.0,0.0,78,0.00,,OVC025,0.00,VWS V13.01,2013-07-14 13:07:00,
2013-07-14 09:12:00,80.8,73.7,30.15,SSW,198,0.0,0.0,79,0.00,,OVC025,0.00,VWS V13.01,2013-07-14 13:12:00,
2013-07-14 09:17:00,81.0,73.1,30.15,SSW,198,0.0,0.0,77,0.00,,OVC025,0.00,VWS V13.01,2013-07-14 13:17:00,
2013-07-14 09:23:00,81.0,71.5,30.15,SSW,197,0.0,0.0,73,0.00,,OVC025,0.00,VWS V13.01,2013-07-14 13:23:00,
2013-07-14 09:28:00,81.7,70.9,30.15,SSW,198,0.0,5.4,70,0.00,,OVC025,0.00,VWS V13.01,2013-07-14 13:28:00,
2013-07-14 09:33:00,81.7,68.8,30.15,SW,227,0.0,6.3,65,0.00,,OVC025,0.00,VWS V13.01,2013-07-14 13:33:00,
2013-07-14 09:38:00,81.3,66.1,30.15,SW,227,0.0,6.3,60,0.00,,OVC025,0.00,VWS V13.01,2013-07-14 13:38:00,
2013-07-14 09:43:00,81.1,66.4,30.15,SW,227,0.0,0.0,61,0.00,,OVC025,0.00,VWS V13.01,2013-07-14 13:43:00,
2013-07-14 09:48:00,81.1,66.9,30.15,SW,227,0.0,7.2,62,0.00,,OVC025,0.00,VWS V13.01,2013-07-14 13:48:00,
2013-07-14 09:53:00,82.0,67.8,30.15,SW,227,0.0,6.3,62,0.00,,OVC025,0.00,VWS V13.01,2013-07-14 13:53:00,
2013-07-14 09:58:00,83.1,67.8,30.15,SW,227,5.4,6.3,60,0.00,,OVC025,0.00,VWS V13.01,2013-07-14 13:58:00,
2013-07-14 10:03:00,83.3,66.5,30.15,WSW,253,0.0,0.0,57,0.00,,OVC029,0.00,VWS V13.01,2013-07-14 14:03:00,
2013-07-14 10:08:00,84.2,67.3,30.15,WSW,253,0.0,0.0,57,0.00,,OVC029,0.00,VWS V13.01,2013-07-14 14:08:00,
2013-07-14 10:13:00,84.9,65.9,30.15,SSW,200,0.0,8.9,53,0.00,,OVC029,0.00,VWS V13.01,2013-07-14 14:13:00,
2013-07-14 10:18:00,86.0,65.2,30.15,SSW,194,0.0,7.2,50,0.00,,OVC029,0.00,VWS V13.01,2013-07-14 14:18:00,
2013-07-14 10:23:00,86.5,65.1,30.15,SSE,164,0.0,8.1,49,0.00,,OVC029,0.00,VWS V13.01,2013-07-14 14:23:00,
2013-07-14 10:28:00,86.9,63.7,30.15,SSW,201,6.3,7.2,46,0.00,,OVC029,0.00,VWS V13.01,2013-07-14 14:28:00,
2013-07-14 10:33:00,85.6,63.7,30.15,SSW,200,0.0,5.4,48,0.00,,OVC029,0.00,VWS V13.01,2013-07-14 14:33:00,
2013-07-14 10:38:00,83.8,63.8,30.15,SSW,197,5.4,8.1,51,0.00,,OVC029,0.00,VWS V13.01,2013-07-14 14:38:00,
2013-07-14 10:43:00,82.8,63.9,30.15,SSE,165,6.3,8.1,53,0.00,,OVC029,0.00,VWS V13.01,2013-07-14 14:43:00,
2013-07-14 10:48:00,84.2,64.1,30.15,SSW,193,10.7,10.7,51,0.00,,OVC029,0.00,VWS V13.01,2013-07-14 14:48:00,
2013-07-14 10:53:00,86.0,61.6,30.15,SW,233,0.0,6.3,44,0.00,,OVC029,0.00,VWS V13.01,2013-07-14 14:53:00,
2013-07-14 10:58:00,87.3,62.7,30.15,East,92,5.4,8.1,44,0.00,,OVC029,0.00,VWS V13.01,2013-07-14 14:58:00,
2013-07-14 11:03:00,88.2,62.9,30.15,ESE,103,0.0,6.3,43,0.00,,BKN045,0.00,VWS V13.01,2013-07-14 15:03:00,
2013-07-14 11:08:00,88.9,62.8,30.15,North,3,5.4,12.5,42,0.00,,BKN045,0.00,VWS V13.01,2013-07-14 15:08:00,
2013-07-14 11:13:00,88.9,62.2,30.15,WSW,252,5.4,8.1,41,0.00,,BKN045,0.00,VWS V13.01,2013-07-14 15:13:00,
2013-07-14 11:18:00,89.8,64.3,30.15,SSE,147,9.8,9.8,43,0.00,,BKN045,0.00,VWS V13.01,2013-07-14 15:18:00,
2013-07-14 11:23:00,90.0,63.1,30.15,SW,215,8.1,8.1,41,0.00,,BKN045,0.00,VWS V13.01,2013-07-14 15:23:00,
2013-07-14 11:28:00,90.0,62.4,30.15,SSW,201,5.4,11.6,40,0.00,,BKN045,0.00,VWS V13.01,2013-07-14 15:28:00,
2013-07-14 11:33:00,90.1,62.6,30.15,SSW,199,0.0,8.1,40,0.00,,BKN045,0.00,VWS V13.01,2013-07-14 15:33:00,
2013-07-14 11:38:00,90.5,63.6,30.15,NE,43,0.0,7.2,41,0.00,,BKN045,0.00,VWS V13.01,2013-07-14 15:38:00,
2013-07-14 11:43:00,90.0,63.1,30.15,SSW,212,7.2,8.1,41,0.00,,BKN045,0.00,VWS V13.01,2013-07-14 15:43:00,
2013-07-14 11:48:00,90.3,62.7,30.15,SW,216,7.2,11.6,40,0.00,,BKN045,0.00,VWS V13.01,2013-07-14 15:48:00,
2013-07-14 11:53:00,91.2,64.2,30.15,South,189,8.9,10.7,41,0.00,,BKN045,0.00,VWS V13.01,2013-07-14 15:53:00,
2013-07-14 11:58:00,91.4,63.7,30.15,South,191,0.0,9.8,40,0.00,,BKN045,0.00,VWS V13.01,2013-07-14 15:58:00,
2013-07-14 12:04:00,91.6,63.1,30.15,SW,225,5.4,10.7,39,0.00,,FEW041,0.00,VWS V13.01,2013-07-14 16:04:00,
2013-07-14 12:09:00,91.6,63.9,30.15,South,183,0.0,12.5,40,0.00,,FEW041,0.00,VWS V13.01,2013-07-14 16:09:00,
2013-07-14 12:14:00,91.9,63.5,30.15,SW,227,5.4,8.1,39,0.00,,FEW041,0.00,VWS V13.01,2013-07-14 16:14:00,
2013-07-14 12:19:00,90.7,63.1,30.15,NNW,329,0.0,6.3,40,0.00,,FEW041,0.00,VWS V13.01,2013-07-14 16:19:00,
2013-07-14 12:24:00,89.2,62.5,30.15,NNW,329,0.0,0.0,41,0.00,,FEW041,0.00,VWS V13.01,2013-07-14 16:24:00,
2013-07-14 12:29:00,89.6,62.1,30.15,South,187,0.0,9.8,40,0.00,,FEW041,0.00,VWS V13.01,2013-07-14 16:29:00,
2013-07-14 12:34:00,90.7,63.8,30.15,South,186,0.0,0.0,41,0.00,,FEW041,0.00,VWS V13.01,2013-07-14 16:34:00,
2013-07-14 12:39:00,91.4,63.7,30.15,West,266,0.0,7.2,40,0.00,,FEW041,0.00,VWS V13.01,2013-07-14 16:39:00,
2013-07-14 12:44:00,92.1,61.3,30.15,ENE,58,8.9,12.5,36,0.00,,FEW041,0.00,VWS V13.01,2013-07-14 16:44:00,
2013-07-14 12:49:00,92.1,60.6,30.12,WSW,244,0.0,13.4,35,0.00,,FEW041,0.00,VWS V13.01,2013-07-14 16:49:00,
2013-07-14 12:54:00,91.8,61.8,30.12,WSW,247,5.4,7.2,37,0.00,,FEW041,0.00,VWS V13.01,2013-07-14 16:54:00,
2013-07-14 12:59:00,90.9,63.2,30.12,South,190,11.6,11.6,40,0.00,,FEW041,0.00,VWS V13.01,2013-07-14 16:59:00,
2013-07-14 13:04:00,91.9,61.2,30.12,SSW,194,9.8,10.7,36,0.00,,BKN049,0.00,VWS V13.01,2013-07-14 17:04:00,
2013-07-14 13:09:00,92.8,62.0,30.12,WSW,257,8.9,8.9,36,0.00,,BKN049,0.00,VWS V13.01,2013-07-14 17:09:00,
2013-07-14 13:14:00,92.5,60.9,30.12,South,176,5.4,8.1,35,0.00,,BKN049,0.00,VWS V13.01,2013-07-14 17:14:00,
2013-07-14 13:19:00,93.0,62.1,30.12,SSW,212,5.4,13.4,36,0.00,,BKN049,0.00,VWS V13.01,2013-07-14 17:19:00,
2013-07-14 13:24:00,93.9,61.3,30.12,North,351,6.3,6.3,34,0.00,,BKN049,0.00,VWS V13.01,2013-07-14 17:24:00,
2013-07-14 13:29:00,92.8,61.2,30.12,NE,53,8.9,8.9,35,0.00,,BKN049,0.00,VWS V13.01,2013-07-14 17:29:00,
2013-07-14 13:34:00,91.8,61.8,30.12,SSW,202,5.4,8.1,37,0.00,,BKN049,0.00,VWS V13.01,2013-07-14 17:34:00,
2013-07-14 13:39:00,91.9,61.2,30.12,South,173,5.4,10.7,36,0.00,,BKN049,0.00,VWS V13.01,2013-07-14 17:39:00,
2013-07-14 13:44:00,92.8,61.2,30.12,SSW,193,7.2,12.5,35,0.00,,BKN049,0.00,VWS V13.01,2013-07-14 17:44:00,
2013-07-14 13:49:00,94.1,61.5,30.12,West,274,0.0,7.2,34,0.00,,BKN049,0.00,VWS V13.01,2013-07-14 17:49:00,
2013-07-14 13:54:00,94.8,61.3,30.12,ENE,68,7.2,13.4,33,0.00,,BKN049,0.00,VWS V13.01,2013-07-14 17:54:00,
2013-07-14 13:59:00,95.0,61.4,30.12,South,178,0.0,8.1,33,0.00,,BKN049,0.00,VWS V13.01,2013-07-14 17:59:00,
2013-07-14 14:05:00,92.3,59.1,30.12,ENE,73,7.2,9.8,33,0.00,,OVC050,0.00,VWS V13.01,2013-07-14 18:05:00,
2013-07-14 14:10:00,92.7,61.0,30.12,SSW,204,8.9,11.6,35,0.00,,OVC050,0.00,VWS V13.01,2013-07-14 18:10:00,
2013-07-14 14:15:00,93.4,60.8,30.12,WSW,238,0.0,6.3,34,0.00,,OVC050,0.00,VWS V13.01,2013-07-14 18:15:00,
2013-07-14 14:20:00,93.6,60.2,30.12,SSW,193,12.5,13.9,33,0.00,,OVC050,0.00,VWS V13.01,2013-07-14 18:20:00,
2013-07-14 14:25:00,93.2,60.7,30.12,South,175,12.5,12.5,34,0.00,,OVC050,0.00,VWS V13.01,2013-07-14 18:25:00,
2013-07-14 14:30:00,93.7,61.2,30.12,South,171,12.5,12.5,34,0.00,,OVC050,0.00,VWS V13.01,2013-07-14 18:30:00,
2013-07-14 14:35:00,94.6,61.1,30.12,SSE,156,0.0,10.7,33,0.00,,OVC050,0.00,VWS V13.01,2013-07-14 18:35:00,
2013-07-14 14:40:00,94.8,61.3,30.12,SSW,211,10.7,12.5,33,0.00,,OVC050,0.00,VWS V13.01,2013-07-14 18:40:00,
2013-07-14 14:45:00,93.6,59.3,30.12,ENE,69,0.0,6.3,32,0.00,,OVC050,0.00,VWS V13.01,2013-07-14 18:45:00,
2013-07-14 14:50:00,93.2,60.7,30.12,SSE,168,0.0,6.3,34,0.00,,OVC050,0.00,VWS V13.01,2013-07-14 18:50:00,
2013-07-14 14:55:00,92.8,61.2,30.12,ENE,74,0.0,8.1,35,0.00,,OVC050,0.00,VWS V13.01,2013-07-14 18:55:00,
2013-07-14 15:00:00,91.8,61.8,30.12,South,177,8.9,8.9,37,0.00,,OVC050,0.00,VWS V13.01,2013-07-14 19:00:00,
2013-07-14 15:05:00,91.9,61.2,30.12,SSE,156,0.0,10.7,36,0.00,,BKN055,0.00,VWS V13.01,2013-07-14 19:05:00,
2013-07-14 15:10:00,91.4,61.5,30.12,SSE,163,7.2,8.9,37,0.00,,BKN055,0.00,VWS V13.01,2013-07-14 19:10:00,
2013-07-14 15:15:00,92.8,61.2,30.12,South,189,8.1,8.9,35,0.00,,BKN055,0.00,VWS V13.01,2013-07-14 19:15:00,
2013-07-14 15:20:00,94.5,64.2,30.09,SE,129,6.3,6.3,37,0.00,,BKN055,0.00,VWS V13.01,2013-07-14 19:20:00,
2013-07-14 15:25:00,95.0,61.4,30.09,SSE,152,6.3,8.1,33,0.00,,BKN055,0.00,VWS V13.01,2013-07-14 19:25:00,
2013-07-14 15:30:00,95.4,61.7,30.09,South,191,9.8,12.5,33,0.00,,BKN055,0.00,VWS V13.01,2013-07-14 19:30:00,
2013-07-14 15:35:00,95.9,62.2,30.09,SW,215,0.0,6.3,33,0.00,,BKN055,0.00,VWS V13.01,2013-07-14 19:35:00,
2013-07-14 15:40:00,95.5,61.0,30.09,SSW,194,11.6,11.6,32,0.00,,BKN055,0.00,VWS V13.01,2013-07-14 19:40:00,
2013-07-14 15:45:00,94.5,60.9,30.09,South,187,5.4,6.3,33,0.00,,BKN055,0.00,VWS V13.01,2013-07-14 19:45:00,
2013-07-14 15:50:00,95.4,61.7,30.09,SW,219,0.0,9.8,33,0.00,,BKN055,0.00,VWS V13.01,2013-07-14 19:50:00,
2013-07-14 15:55:00,95.4,60.9,30.09,SSE,166,12.5,13.4,32,0.00,,BKN055,0.00,VWS V13.01,2013-07-14 19:55:00,
2013-07-14 16:00:00,95.0,60.5,30.09,SSW,200,5.4,10.7,32,0.00,,BKN055,0.00,VWS V13.01,2013-07-14 20:00:00,
2013-07-14 16:05:00,95.4,60.9,30.09,SW,231,0.0,11.6,32,0.00,,OVC060,0.00,VWS V13.01,2013-07-14 20:05:00,
2013-07-14 16:10:00,95.7,61.2,30.09,SE,145,12.5,12.5,32,0.00,,OVC060,0.00,VWS V13.01,2013-07-14 20:10:00,
2013-07-14 16:15:00,95.7,60.3,30.09,SSW,206,5.4,8.1,31,0.00,,OVC060,0.00,VWS V13.01,2013-07-14 20:15:00,
2013-07-14 16:20:00,95.5,61.0,30.09,South,174,6.3,9.8,32,0.00,,OVC060,0.00,VWS V13.01,2013-07-14 20:20:00,
2013-07-14 16:25:00,95.7,60.3,30.09,South,184,7.2,11.6,31,0.00,,OVC060,0.00,VWS V13.01,2013-07-14 20:25:00,
2013-07-14 16:30:00,95.7,61.2,30.09,WSW,254,6.3,10.7,32,0.00,,OVC060,0.00,VWS V13.01,2013-07-14 20:30:00,
2013-07-14 16:35:00,95.4,60.9,30.09,NE,47,0.0,9.8,32,0.00,,OVC060,0.00,VWS V13.01,2013-07-14 20:35:00,
2013-07-14 16:41:00,95.2,59.8,30.09,SSW,209,5.4,9.8,31,0.00,,OVC060,0.00,VWS V13.01,2013-07-14 20:41:00,
2013-07-14 16:46:00,95.2,60.7,30.09,SE,136,7.2,12.5,32,0.00,,OVC060,0.00,VWS V13.01,2013-07-14 20:46:00,
2013-07-14 16:51:00,95.0,60.5,30.09,South,184,8.1,10.7,32,0.00,,OVC060,0.00,VWS V13.01,2013-07-14 20:51:00,
2013-07-14 16:56:00,95.0,59.7,30.09,SSE,161,0.0,10.7,31,0.00,,OVC060,0.00,VWS V13.01,2013-07-14 20:56:00,
2013-07-14 17:01:00,95.0,59.7,30.09,WSW,249,0.0,7.2,31,0.00,,OVC060,0.00,VWS V13.01,2013-07-14 21:01:00,
2013-07-14 17:06:00,93.9,59.6,30.09,North,0,0.0,7.2,32,0.00,,SCT047,0.00,VWS V13.01,2013-07-14 21:06:00,
2013-07-14 17:11:00,93.7,59.5,30.09,SE,143,7.2,11.6,32,0.00,,SCT047,0.00,VWS V13.01,2013-07-14 21:11:00,
2013-07-14 17:16:00,94.1,59.8,30.09,SSE,158,0.0,8.1,32,0.00,,SCT047,0.00,VWS V13.01,2013-07-14 21:16:00,
2013-07-14 17:21:00,94.3,59.0,30.09,ESE,121,8.1,13.4,31,0.00,,SCT047,0.00,VWS V13.01,2013-07-14 21:21:00,
2013-07-14 17:26:00,94.5,60.1,30.09,WSW,237,0.0,8.1,32,0.00,,SCT047,0.00,VWS V13.01,2013-07-14 21:26:00,
2013-07-14 17:31:00,94.3,59.9,30.09,SSW,211,8.1,8.9,32,0.00,,SCT047,0.00,VWS V13.01,2013-07-14 21:31:00,
2013-07-14 17:36:00,93.7,59.5,30.09,SW,219,6.3,10.7,32,0.00,,SCT047,0.00,VWS V13.01,2013-07-14 21:36:00,
2013-07-14 17:41:00,93.7,60.3,30.09,SSE,162,7.2,10.7,33,0.00,,SCT047,0.00,VWS V13.01,2013-07-14 21:41:00,
2013-07-14 17:46:00,93.9,60.5,30.09,NW,306,0.0,0.0,33,0.00,,SCT047,0.00,VWS V13.01,2013-07-14 21:46:00,
2013-07-14 17:51:00,93.7,59.5,30.09,South,187,8.9,13.9,32,0.00,,SCT047,0.00,VWS V13.01,2013-07-14 21:51:00,
2013-07-14 17:56:00,93.7,60.3,30.09,SSW,201,0.0,6.3,33,0.00,,SCT047,0.00,VWS V13.01,2013-07-14 21:56:00,
2013-07-14 18:01:00,93.6,59.3,30.09,South,176,6.3,8.9,32,0.00,,BKN047,0.00,VWS V13.01,2013-07-14 22:01:00,
2013-07-14 18:06:00,93.2,58.1,30.09,SSW,196,9.8,11.6,31,0.00,,BKN047,0.00,VWS V13.01,2013-07-14 22:06:00,
2013-07-14 18:11:00,92.8,58.7,30.09,South,183,0.0,8.1,32,0.00,,BKN047,0.00,VWS V13.01,2013-07-14 22:11:00,
2013-07-14 18:16:00,92.1,58.9,30.09,SW,230,0.0,6.3,33,0.00,,BKN047,0.00,VWS V13.01,2013-07-14 22:16:00,
2013-07-14 18:21:00,91.4,58.3,30.09,SSW,194,8.9,8.9,33,0.00,,BKN047,0.00,VWS V13.01,2013-07-14 22:21:00,
2013-07-14 18:26:00,90.5,57.5,30.09,South,188,6.3,8.9,33,0.00,,BKN047,0.00,VWS V13.01,2013-07-14 22:26:00,
2013-07-14 18:31:00,89.6,58.3,30.09,SSW,211,0.0,6.3,35,0.00,,BKN047,0.00,VWS V13.01,2013-07-14 22:31:00,
2013-07-14 18:36:00,89.1,57.9,30.06,West,271,0.0,8.1,35,0.00,,BKN047,0.00,VWS V13.01,2013-07-14 22:36:00,
2013-07-14 18:41:00,88.7,58.3,30.06,SW,215,5.4,10.7,36,0.00,,BKN047,0.00,VWS V13.01,2013-07-14 22:41:00,
2013-07-14 18:46:00,88.2,57.9,30.06,SSW,198,8.1,8.1,36,0.00,,BKN047,0.00,VWS V13.01,2013-07-14 22:46:00,
2013-07-14 18:51:00,87.8,59.1,30.06,WSW,247,0.0,8.1,38,0.00,,BKN047,0.00,VWS V13.01,2013-07-14 22:51:00,
2013-07-14 18:56:00,87.4,59.5,30.06,South,190,10.7,10.7,39,0.00,,BKN047,0.00,VWS V13.01,2013-07-14 22:56:00,
2013-07-14 19:01:00,87.3,60.0,30.06,South,176,5.4,8.1,40,0.00,,SCT047,0.00,VWS V13.01,2013-07-14 23:01:00,
2013-07-14 19:06:00,86.9,60.4,30.06,South,177,0.0,7.2,41,0.00,,SCT047,0.00,VWS V13.01,2013-07-14 23:06:00,
2013-07-14 19:11:00,86.4,59.9,30.06,SSW,201,5.4,6.3,41,0.00,,SCT047,0.00,VWS V13.01,2013-07-14 23:11:00,
2013-07-14 19:17:00,86.4,60.6,30.06,South,178,0.0,9.8,42,0.00,,SCT047,0.00,VWS V13.01,2013-07-14 23:17:00,
2013-07-14 19:22:00,86.4,60.6,30.06,West,279,0.0,6.3,42,0.00,,SCT047,0.00,VWS V13.01,2013-07-14 23:22:00,
2013-07-14 19:27:00,86.2,60.4,30.06,SSW,213,6.3,6.3,42,0.00,,SCT047,0.00,VWS V13.01,2013-07-14 23:27:00,
2013-07-14 19:32:00,85.8,60.1,30.06,South,187,7.2,9.8,42,0.00,,SCT047,0.00,VWS V13.01,2013-07-14 23:32:00,
2013-07-14 19:37:00,85.6,60.6,30.06,WSW,257,5.4,7.2,43,0.00,,SCT047,0.00,VWS V13.01,2013-07-14 23:37:00,
2013-07-14 19:42:00,85.5,60.4,30.06,South,189,0.0,0.0,43,0.00,,SCT047,0.00,VWS V13.01,2013-07-14 23:42:00,
2013-07-14 19:47:00,84.9,60.6,30.06,South,189,0.0,0.0,44,0.00,,SCT047,0.00,VWS V13.01,2013-07-14 23:47:00,
2013-07-14 19:52:00,84.6,60.3,30.06,South,181,0.0,6.3,44,0.00,,SCT047,0.00,VWS V13.01,2013-07-14 23:52:00,
2013-07-14 19:57:00,84.4,60.7,30.06,South,181,0.0,5.4,45,0.00,,SCT047,0.00,VWS V13.01,2013-07-14 23:57:00,
2013-07-14 20:02:00,84.0,61.0,30.06,WNW,282,0.0,5.4,46,0.00,,FEW043,0.00,VWS V13.01,2013-07-15 00:02:00,
2013-07-14 20:07:00,83.8,60.9,30.09,West,263,0.0,6.3,46,0.00,,FEW043,0.00,VWS V13.01,2013-07-15 00:07:00,
2013-07-14 20:12:00,83.8,60.9,30.09,South,178,5.4,8.1,46,0.00,,FEW043,0.00,VWS V13.01,2013-07-15 00:12:00,
2013-07-14 20:17:00,83.7,60.7,30.09,WSW,247,5.4,8.9,46,0.00,,FEW043,0.00,VWS V13.01,2013-07-15 00:17:00,
2013-07-14 20:22:00,83.3,61.0,30.09,SE,130,0.0,9.8,47,0.00,,FEW043,0.00,VWS V13.01,2013-07-15 00:22:00,
2013-07-14 20:27:00,83.1,60.8,30.09,South,174,0.0,8.9,47,0.00,,FEW043,0.00,VWS V13.01,2013-07-15 00:27:00,
2013-07-14 20:32:00,82.8,60.5,30.09,South,174,0.0,0.0,47,0.00,,FEW043,0.00,VWS V13.01,2013-07-15 00:32:00,
2013-07-14 20:37:00,82.4,60.8,30.09,South,186,0.0,8.9,48,0.00,,FEW043,0.00,VWS V13.01,2013-07-15 00:37:00,
2013-07-14 20:42:00,82.2,60.6,30.09,South,186,0.0,0.0,48,0.00,,FEW043,0.00,VWS V13.01,2013-07-15 00:42:00,
2013-07-14 20:47:00,81.9,60.8,30.09,SSW,195,0.0,10.7,49,0.00,,FEW043,0.00,VWS V13.01,2013-07-15 00:47:00,
2013-07-14 20:52:00,81.5,60.5,30.09,SSW,196,0.0,0.0,49,0.00,,FEW043,0.00,VWS V13.01,2013-07-15 00:52:00,
2013-07-14 20:57:00,81.3,60.9,30.09,SSW,196,0.0,5.4,50,0.00,,FEW043,0.00,VWS V13.01,2013-07-15 00:57:00,
2013-07-14 21:02:00,81.1,61.3,30.09,SSW,196,0.0,0.0,51,0.00,,FEW041,0.00,VWS V13.01,2013-07-15 01:02:00,
2013-07-14 21:07:00,80.8,61.5,30.09,SSW,196,0.0,6.3,52,0.00,,FEW041,0.00,VWS V13.01,2013-07-15 01:07:00,
2013-07-14 21:12:00,80.4,61.7,30.09,SSW,196,0.0,0.0,53,0.00,,FEW041,0.00,VWS V13.01,2013-07-15 01:12:00,
2013-07-14 21:17:00,79.9,61.2,30.09,SSW,195,0.0,0.0,53,0.00,,FEW041,0.00,VWS V13.01,2013-07-15 01:17:00,
2013-07-14 21:22:00,79.7,62.1,30.09,SSW,196,0.0,0.0,55,0.00,,FEW041,0.00,VWS V13.01,2013-07-15 01:22:00,
2013-07-14 21:27:00,79.3,62.3,30.09,SSW,195,0.0,0.0,56,0.00,,FEW041,0.00,VWS V13.01,2013-07-15 01:27:00,
2013-07-14 21:31:00,79.2,62.6,30.09,SSW,196,0.0,0.0,57,0.00,,FEW041,0.00,VWS V13.01,2013-07-15 01:31:00,
2013-07-14 21:36:00,78.8,62.8,30.09,SSW,195,0.0,0.0,58,0.00,,FEW041,0.00,VWS V13.01,2013-07-15 01:36:00,
2013-07-14 21:41:00,78.4,62.9,30.09,SSW,196,0.0,6.3,59,0.00,,FEW041,0.00,VWS V13.01,2013-07-15 01:41:00,
2013-07-14 21:46:00,78.3,62.8,30.09,SSW,195,0.0,0.0,59,0.00,,FEW041,0.00,VWS V13.01,2013-07-15 01:46:00,
2013-07-14 21:51:00,78.1,62.6,30.09,SSW,195,0.0,0.0,59,0.00,,FEW041,0.00,VWS V13.01,2013-07-15 01:51:00,
2013-07-14 21:56:00,77.9,62.9,30.09,SSW,195,0.0,0.0,60,0.00,,FEW041,0.00,VWS V13.01,2013-07-15 01:56:00,
2013-07-14 22:01:00,77.9,63.4,30.09,SSW,196,0.0,0.0,61,0.00,,FEW038,0.00,VWS V13.01,2013-07-15 02:01:00,
2013-07-14 22:06:00,77.7,63.2,30.09,SSW,195,0.0,0.0,61,0.00,,FEW038,0.00,VWS V13.01,2013-07-15 02:06:00,
2013-07-14 22:11:00,77.5,63.0,30.09,SSW,196,0.0,5.4,61,0.00,,FEW038,0.00,VWS V13.01,2013-07-15 02:11:00,
2013-07-14 22:16:00,77.5,63.0,30.09,SSW,196,0.0,0.0,61,0.00,,FEW038,0.00,VWS V13.01,2013-07-15 02:16:00,
2013-07-14 22:21:00,77.5,63.0,30.09,SSW,196,0.0,0.0,61,0.00,,FEW038,0.00,VWS V13.01,2013-07-15 02:21:00,
2013-07-14 22:26:00,77.7,62.7,30.09,SSW,196,0.0,7.2,60,0.00,,FEW038,0.00,VWS V13.01,2013-07-15 02:26:00,
2013-07-14 22:31:00,77.9,62.0,30.09,SSW,195,0.0,0.0,58,0.00,,FEW038,0.00,VWS V13.01,2013-07-15 02:31:00,
2013-07-14 22:36:00,77.9,62.0,30.09,SSW,196,6.3,7.2,58,0.00,,FEW038,0.00,VWS V13.01,2013-07-15 02:36:00,
2013-07-14 22:41:00,78.1,61.6,30.09,WSW,238,5.4,5.4,57,0.00,,FEW038,0.00,VWS V13.01,2013-07-15 02:41:00,
2013-07-14 22:46:00,78.1,61.6,30.09,South,187,0.0,8.1,57,0.00,,FEW038,0.00,VWS V13.01,2013-07-15 02:46:00,
2013-07-14 22:51:00,78.1,61.1,30.09,WSW,258,0.0,7.2,56,0.00,,FEW038,0.00,VWS V13.01,2013-07-15 02:51:00,
2013-07-14 22:56:00,78.1,61.1,30.09,West,278,5.4,5.4,56,0.00,,FEW038,0.00,VWS V13.01,2013-07-15 02:56:00,
2013-07-14 23:01:00,78.1,61.1,30.09,West,278,9.8,9.8,56,0.00,,CLR,0.00,VWS V13.01,2013-07-15 03:01:00,
2013-07-14 23:06:00,78.3,61.3,30.09,WSW,246,0.0,0.0,56,0.00,,CLR,0.00,VWS V13.01,2013-07-15 03:06:00,
2013-07-14 23:11:00,78.1,61.1,30.09,SE,140,0.0,0.0,56,0.00,,CLR,0.00,VWS V13.01,2013-07-15 03:11:00,
2013-07-14 23:16:00,77.9,61.0,30.09,WSW,251,0.0,0.0,56,0.00,,CLR,0.00,VWS V13.01,2013-07-15 03:16:00,
2013-07-14 23:21:00,77.9,61.5,30.09,SW,235,0.0,7.2,57,0.00,,CLR,0.00,VWS V13.01,2013-07-15 03:21:00,
2013-07-14 23:26:00,77.5,61.1,30.09,SW,235,0.0,0.0,57,0.00,,CLR,0.00,VWS V13.01,2013-07-15 03:26:00,
2013-07-14 23:31:00,77.4,61.4,30.09,SW,235,0.0,0.0,58,0.00,,CLR,0.00,VWS V13.01,2013-07-15 03:31:00,
2013-07-14 23:36:00,77.0,61.6,30.09,WSW,238,0.0,6.3,59,0.00,,CLR,0.00,VWS V13.01,2013-07-15 03:36:00,
2013-07-14 23:41:00,77.0,61.6,30.09,WSW,238,0.0,6.3,59,0.00,,CLR,0.00,VWS V13.01,2013-07-15 03:41:00,
2013-07-14 23:46:00,77.0,61.6,30.09,South,190,0.0,5.4,59,0.00,,CLR,0.00,VWS V13.01,2013-07-15 03:46:00,
2013-07-14 23:51:00,77.0,61.6,30.09,West,259,0.0,0.0,59,0.00,,CLR,0.00,VWS V13.01,2013-07-15 03:51:00,
2013-07-14 23:56:00,76.8,61.4,30.09,West,259,0.0,0.0,59,0.00,,CLR,0.00,VWS V13.01,2013-07-15 03:56:00,